Index of /~xliang/aosc621

[ICO]NameLast modifiedSize

[PARENTDIR]Parent Directory  -
[   ]Syllabus_AOSC621_Spring2016.pdf2016-01-20 15:21 488K
[   ]AOSC621L01_Atmosphere_Structure.pdf2016-01-27 11:32 8.5M
[   ]Homework1.pdf2016-02-03 14:29 586K
[   ]AOSC621L02_RadiationQuality_Quantity.pdf2016-02-03 15:45 3.6M
[   ]AOSC621L03_RadiationPrinciples_Emission.pdf2016-02-04 12:03 4.2M
[   ]AOSC621L04_Extinction_Scattering.pdf2016-02-09 12:11 6.1M
[   ]Homework2.pdf2016-02-10 22:19 157K
[   ]HW2_FogDetection_reference.zip2016-02-10 22:20 11M
[   ]AOSC621L05_Gas_Absorption.pdf2016-02-18 11:00 5.9M
[   ]AOSC621L09_Review_Midterm1_Earlier.pdf2016-02-23 08:36 4.1M
[   ]AOSC621L06_GreenhouseEffect_Spectroscopy.pdf2016-03-01 09:01 2.7M
[   ]Homework3.pdf2016-03-01 09:03 128K
[   ]HW3_Albedo_reference.zip2016-03-01 09:05 10M
[   ]AOSC621L07_LineBroadening.pdf2016-03-03 08:56 2.0M
[   ]AOSC621L08_RadiativeTransfer_Basics.pdf2016-03-08 12:00 3.3M
[   ]AOSC621L11_FormulateRTP_PhaseFunction.pdf2016-03-09 23:06 3.4M
[   ]AOSC621L12_Prototype_RTProblem.pdf2016-03-22 11:30 2.6M
[   ]Homework4.pdf2016-03-23 17:26 81K
[   ]HW4_Aerosol_reference.zip2016-03-23 17:32 47M
[   ]AOSC621L13_TwoStreamApproximation.pdf2016-03-28 22:41 2.1M
[   ]AOSC621L15_CloudFormation.pdf2016-03-31 11:37 5.5M
[   ]AOSC621L16_CloudOpticalProperty.pdf2016-04-05 13:16 13M
[   ]AOSC621L20_Review_Midterm2_Earlier.pdf2016-04-06 21:46 4.2M
[   ]Homework5.pdf2016-04-18 22:51 109K
[   ]HW5_AirQuality_reference.zip2016-04-18 22:55 10M
[   ]ReactionRate-Seinfeld2006.pdf2016-04-18 23:02 41K
[   ]AOSC621L23_RadiativeForcing_ClimateSensitivity.pdf2016-04-19 11:08 4.4M
[   ]AOSC621L25_Photolysis_Kinetics.pdf2016-04-21 12:13 3.9M
[   ]AOSC621L26_AirQuality_ClimateChange.pdf2016-04-26 11:53 10M
[   ]AOSC621L24_RadiationBalance_ClimateFeedback.pdf2016-05-03 11:03 13M
[   ]AOSC621L27_RadarMeteorology.pdf2016-05-05 11:09 6.0M
[   ]AOSC621L29_Review_Finalterm.pdf2016-05-10 10:53 3.5M
[   ]AOSC680_FEW_Nexus.pdf2016-10-19 14:09 64M
[   ]AOSC621L05_Gas_Absorption.pptx2017-01-08 18:25 5.4M